createdAt,value
2024-05-09T00:00:48.687Z,77.20
2024-05-09T00:03:37.285Z,77.74
2024-05-09T00:06:08.181Z,77.89
2024-05-09T00:08:36.517Z,77.62
2024-05-09T00:11:05.146Z,77.41
2024-05-09T00:13:33.572Z,77.38
2024-05-09T00:16:01.978Z,77.06
2024-05-09T00:18:30.577Z,76.94
2024-05-09T00:20:59.775Z,76.68
2024-05-09T00:23:29.079Z,76.17
2024-05-09T00:25:57.777Z,76.38
2024-05-09T00:28:26.153Z,76.21
2024-05-09T00:30:54.955Z,75.99
2024-05-09T00:33:23.474Z,75.97
2024-05-09T00:35:52.070Z,76.22
2024-05-09T00:38:20.535Z,76.10
2024-05-09T00:40:48.853Z,76.06
2024-05-09T00:43:17.114Z,76.03
2024-05-09T00:45:46.644Z,76.33
2024-05-09T00:48:19.765Z,76.92
2024-05-09T00:50:50.621Z,76.02
2024-05-09T00:53:19.335Z,75.92
2024-05-09T00:55:48.567Z,76.04
2024-05-09T00:58:20.287Z,76.02
2024-05-09T01:00:50.313Z,75.85
2024-05-09T01:03:19.875Z,75.54
2024-05-09T01:05:48.814Z,75.39
2024-05-09T01:08:18.247Z,75.42
2024-05-09T01:10:48.527Z,75.41
2024-05-09T01:13:17.189Z,75.89
2024-05-09T01:15:48.044Z,75.60
2024-05-09T01:18:16.939Z,75.62
2024-05-09T01:20:45.719Z,75.81
2024-05-09T01:23:16.028Z,75.50
2024-05-09T01:25:46.542Z,76.19
2024-05-09T01:28:16.300Z,75.75
2024-05-09T01:30:44.936Z,75.58
2024-05-09T01:33:13.730Z,75.62
2024-05-09T01:35:43.256Z,74.91
2024-05-09T01:38:17.341Z,75.15
2024-05-09T01:40:47.153Z,75.38
2024-05-09T01:43:19.042Z,75.38
2024-05-09T01:45:47.396Z,75.41
2024-05-09T01:48:16.070Z,75.60
2024-05-09T01:50:44.255Z,75.09
2024-05-09T01:53:15.145Z,75.37
2024-05-09T01:55:44.584Z,75.42
2024-05-09T01:58:13.582Z,75.50
2024-05-09T02:00:43.178Z,75.39
2024-05-09T02:03:16.219Z,75.65
2024-05-09T02:05:49.622Z,75.61
2024-05-09T02:08:22.545Z,75.43
2024-05-09T02:10:51.226Z,75.07
2024-05-09T02:13:19.738Z,74.85
2024-05-09T02:15:51.929Z,74.80
2024-05-09T02:18:23.695Z,74.96
2024-05-09T02:20:52.322Z,74.53
2024-05-09T02:23:20.709Z,74.50
2024-05-09T02:25:49.451Z,74.45
2024-05-09T02:28:17.844Z,74.62
2024-05-09T02:30:45.958Z,74.84
2024-05-09T02:33:14.724Z,74.73
2024-05-09T02:35:44.243Z,74.66
2024-05-09T02:38:13.720Z,74.62
2024-05-09T02:40:42.419Z,74.67
2024-05-09T02:43:12.696Z,74.55
2024-05-09T02:45:42.108Z,74.50
2024-05-09T02:48:12.673Z,74.24
2024-05-09T02:50:44.049Z,74.26
2024-05-09T02:53:13.837Z,74.25
2024-05-09T02:55:43.168Z,74.30
2024-05-09T02:58:12.420Z,74.58
2024-05-09T03:00:42.558Z,74.83
2024-05-09T03:03:14.424Z,74.86
2024-05-09T03:05:47.090Z,75.11
2024-05-09T03:08:15.553Z,74.90
2024-05-09T03:10:44.048Z,75.06
2024-05-09T03:13:15.595Z,74.90
2024-05-09T03:15:45.647Z,75.01
2024-05-09T03:18:15.441Z,74.85
2024-05-09T03:20:44.707Z,75.08
2024-05-09T03:23:13.742Z,74.82
2024-05-09T03:25:42.119Z,74.87
2024-05-09T03:28:11.378Z,74.71
2024-05-09T03:30:42.470Z,75.14
2024-05-09T03:33:20.068Z,74.87
2024-05-09T03:35:49.803Z,74.75
2024-05-09T03:38:18.438Z,74.91
2024-05-09T03:40:50.989Z,74.67
2024-05-09T03:43:20.208Z,74.61
2024-05-09T03:45:50.490Z,74.26
2024-05-09T03:48:19.255Z,74.69
2024-05-09T03:50:47.944Z,75.00
2024-05-09T03:53:16.807Z,74.61
2024-05-09T03:55:48.650Z,74.81
2024-05-09T03:58:17.219Z,74.94
2024-05-09T04:00:45.996Z,74.54
2024-05-09T04:03:15.449Z,74.34
2024-05-09T04:05:44.715Z,73.98
2024-05-09T04:08:15.743Z,73.78
2024-05-09T04:10:44.319Z,73.78
2024-05-09T04:13:13.050Z,74.00
2024-05-09T04:15:41.611Z,74.25
2024-05-09T04:18:10.208Z,74.32
2024-05-09T04:20:40.901Z,73.88
2024-05-09T04:23:14.622Z,74.21
2024-05-09T04:25:45.312Z,73.99
2024-05-09T04:28:17.884Z,73.90
2024-05-09T04:30:46.472Z,73.28
2024-05-09T04:33:15.480Z,73.11
2024-05-09T04:35:45.369Z,73.40
2024-05-09T04:38:14.881Z,73.02
2024-05-09T04:40:44.324Z,72.74
2024-05-09T04:43:19.671Z,72.64
2024-05-09T04:45:48.454Z,72.32
2024-05-09T04:48:18.594Z,72.41
2024-05-09T04:50:47.524Z,72.99
2024-05-09T04:53:20.508Z,72.85
2024-05-09T04:55:52.869Z,72.37
2024-05-09T04:58:24.237Z,72.37
2024-05-09T05:00:53.519Z,72.57
2024-05-09T05:03:22.458Z,72.77
2024-05-09T05:05:50.899Z,72.79
2024-05-09T05:08:20.093Z,72.78
2024-05-09T05:10:49.466Z,72.87
2024-05-09T05:13:24.890Z,72.91
2024-05-09T05:15:58.180Z,72.55
2024-05-09T05:18:28.237Z,72.56
2024-05-09T05:20:57.979Z,72.11
2024-05-09T05:23:27.155Z,71.95
2024-05-09T05:25:57.215Z,71.85
2024-05-09T05:28:26.140Z,71.73
2024-05-09T05:30:54.619Z,71.58
2024-05-09T05:33:24.588Z,71.51
2024-05-09T05:35:52.810Z,71.34
2024-05-09T05:38:24.872Z,71.26
2024-05-09T05:40:56.820Z,71.13
2024-05-09T05:43:25.823Z,71.34
2024-05-09T05:45:54.133Z,71.28
2024-05-09T05:48:22.485Z,71.11
2024-05-09T05:50:50.881Z,71.15
2024-05-09T05:53:19.458Z,71.36
2024-05-09T05:55:47.935Z,71.10
2024-05-09T05:58:16.059Z,71.37
2024-05-09T06:00:44.255Z,71.72
2024-05-09T06:03:13.806Z,71.49
2024-05-09T06:05:46.199Z,71.52
2024-05-09T06:08:14.821Z,71.93
2024-05-09T06:10:43.365Z,72.22
2024-05-09T06:13:13.128Z,72.47
2024-05-09T06:15:42.359Z,72.57
2024-05-09T06:18:12.366Z,72.84
2024-05-09T06:20:43.872Z,73.40
2024-05-09T06:23:14.286Z,73.25
2024-05-09T06:25:43.848Z,73.73
2024-05-09T06:28:12.355Z,73.99
2024-05-09T06:30:43.452Z,73.99
2024-05-09T06:33:15.806Z,74.19
2024-05-09T06:35:48.058Z,74.11
2024-05-09T06:38:16.270Z,74.10
2024-05-09T06:40:44.910Z,74.17
2024-05-09T06:43:19.439Z,73.77
2024-05-09T06:45:50.274Z,73.68
2024-05-09T06:48:19.992Z,74.14
2024-05-09T06:50:49.363Z,72.67
2024-05-09T06:53:21.065Z,72.07
2024-05-09T06:55:50.370Z,72.65
2024-05-09T06:58:19.232Z,72.75
2024-05-09T07:00:47.968Z,72.84
2024-05-09T07:03:18.436Z,72.95
2024-05-09T07:05:49.255Z,73.10
2024-05-09T07:08:18.865Z,73.37
2024-05-09T07:10:47.720Z,73.42
2024-05-09T07:13:18.099Z,73.18
2024-05-09T07:15:46.605Z,73.34
2024-05-09T07:18:18.465Z,73.15
2024-05-09T07:20:49.450Z,71.43
2024-05-09T07:23:19.133Z,70.17
2024-05-09T07:25:48.630Z,69.89
2024-05-09T07:28:19.916Z,68.82
2024-05-09T07:30:48.548Z,69.17
2024-05-09T07:33:19.167Z,68.22
2024-05-09T07:35:47.908Z,68.55
2024-05-09T07:38:16.366Z,68.59
2024-05-09T07:40:44.840Z,68.39
2024-05-09T07:43:14.674Z,68.40
2024-05-09T07:45:52.151Z,67.71
2024-05-09T07:52:38.984Z,68.09
2024-05-09T07:53:48.834Z,68.77
2024-05-09T07:56:23.082Z,66.77
2024-05-09T07:58:53.739Z,66.27
2024-05-09T08:01:26.367Z,66.66
2024-05-09T08:03:56.132Z,66.35
2024-05-09T08:06:26.712Z,66.05
2024-05-09T08:08:59.147Z,66.02
2024-05-09T08:11:31.869Z,66.57
2024-05-09T08:14:00.512Z,65.14
2024-05-09T08:16:28.966Z,64.87
2024-05-09T08:18:58.252Z,65.18
2024-05-09T08:21:26.994Z,64.31
2024-05-09T08:23:55.915Z,64.68
2024-05-09T08:26:24.375Z,63.95
2024-05-09T08:28:52.329Z,63.78
2024-05-09T08:31:20.898Z,62.64
2024-05-09T08:33:51.592Z,63.67
2024-05-09T08:36:20.059Z,63.75
2024-05-09T08:38:48.416Z,62.62
2024-05-09T08:41:17.059Z,61.81
2024-05-09T08:43:46.875Z,60.65
2024-05-09T08:46:18.317Z,61.64
2024-05-09T08:48:49.747Z,61.27
2024-05-09T08:51:19.255Z,61.73
2024-05-09T08:53:48.599Z,61.28
2024-05-09T08:56:18.927Z,61.58
2024-05-09T08:58:50.084Z,61.92
2024-05-09T09:01:19.860Z,62.07
2024-05-09T09:03:49.927Z,62.37
2024-05-09T09:06:22.720Z,62.14
2024-05-09T09:09:13.349Z,60.86
2024-05-09T09:11:46.960Z,61.71
2024-05-09T09:14:18.342Z,61.71
2024-05-09T09:16:52.123Z,61.32
2024-05-09T09:19:23.621Z,60.57
2024-05-09T09:21:52.940Z,59.89
2024-05-09T09:24:23.702Z,59.88
2024-05-09T09:26:52.664Z,59.58
2024-05-09T09:29:23.207Z,60.16
2024-05-09T09:32:04.045Z,59.95
2024-05-09T09:34:34.120Z,59.96
2024-05-09T09:37:09.030Z,59.44
2024-05-09T09:39:39.898Z,59.73
2024-05-09T09:42:11.589Z,60.29
2024-05-09T09:44:45.067Z,60.79
2024-05-09T09:47:19.229Z,60.70
2024-05-09T09:49:49.332Z,60.38
2024-05-09T09:52:18.862Z,61.23
2024-05-09T09:54:50.155Z,60.28
2024-05-09T09:57:24.973Z,60.70
2024-05-09T10:00:09.623Z,61.14
2024-05-09T10:02:48.039Z,60.64
2024-05-09T10:05:19.845Z,60.54
2024-05-09T10:07:51.849Z,60.69
2024-05-09T10:10:32.461Z,58.90
2024-05-09T10:13:06.488Z,58.84
2024-05-09T10:15:53.866Z,58.78
2024-05-09T10:18:28.450Z,58.04
2024-05-09T10:21:00.060Z,57.90
2024-05-09T10:23:32.760Z,57.26
2024-05-09T10:26:03.687Z,56.62
2024-05-09T10:28:33.982Z,56.59
2024-05-09T10:31:07.675Z,56.13
2024-05-09T10:33:48.131Z,55.68
2024-05-09T10:36:29.135Z,55.74
2024-05-09T10:38:59.777Z,56.35
2024-05-09T10:41:29.310Z,55.80
2024-05-09T10:44:09.226Z,56.36
2024-05-09T10:46:45.559Z,56.68
2024-05-09T10:49:18.949Z,56.52
2024-05-09T10:51:49.069Z,56.96
2024-05-09T10:54:18.190Z,56.82
2024-05-09T10:56:46.416Z,56.83
2024-05-09T10:59:16.624Z,57.10
2024-05-09T11:01:45.117Z,54.88
2024-05-09T11:04:14.521Z,54.59
2024-05-09T11:06:47.008Z,55.00
2024-05-09T11:09:16.400Z,55.86
2024-05-09T11:11:46.060Z,55.50
2024-05-09T11:14:14.704Z,55.18
2024-05-09T11:16:44.284Z,55.06
2024-05-09T11:19:14.130Z,55.60
2024-05-09T11:21:43.540Z,55.82
2024-05-09T11:24:12.648Z,56.06
2024-05-09T11:26:41.036Z,56.42
2024-05-09T11:29:09.325Z,56.46
2024-05-09T11:31:47.826Z,54.49
2024-05-09T11:34:16.416Z,54.57
2024-05-09T11:36:45.751Z,54.74
2024-05-09T11:39:14.938Z,53.54
2024-05-09T11:41:43.498Z,53.71
2024-05-09T11:44:13.016Z,53.54
2024-05-09T11:46:43.372Z,53.60
2024-05-09T11:49:11.942Z,53.71
2024-05-09T11:51:40.902Z,52.55
2024-05-09T11:54:09.281Z,53.34
2024-05-09T11:56:37.719Z,52.15
2024-05-09T11:59:06.167Z,51.88
2024-05-09T12:01:34.829Z,52.32
2024-05-09T12:04:04.357Z,52.88
2024-05-09T12:06:33.568Z,53.37
2024-05-09T12:09:01.925Z,53.64
2024-05-09T12:11:30.718Z,52.60
2024-05-09T12:13:59.427Z,52.94
2024-05-09T12:16:28.408Z,51.92
2024-05-09T12:18:57.034Z,51.84
2024-05-09T12:21:26.675Z,50.75
2024-05-09T12:23:55.701Z,51.52
2024-05-09T12:26:24.241Z,50.96
2024-05-09T12:28:52.510Z,50.20
2024-05-09T12:31:21.235Z,51.02
2024-05-09T12:33:50.024Z,49.81
2024-05-09T12:36:19.059Z,49.44
2024-05-09T12:38:49.835Z,49.97
2024-05-09T12:41:18.631Z,50.53
2024-05-09T12:43:47.246Z,50.46
2024-05-09T12:46:20.340Z,50.93
2024-05-09T12:48:49.916Z,50.22
2024-05-09T12:51:18.292Z,50.02
2024-05-09T12:53:47.188Z,50.46
2024-05-09T12:56:16.029Z,50.43
2024-05-09T12:58:45.488Z,49.89
2024-05-09T13:01:14.553Z,50.19
2024-05-09T13:03:44.051Z,50.58
2024-05-09T13:06:12.776Z,50.89
2024-05-09T13:08:41.890Z,50.25
2024-05-09T13:11:10.529Z,50.38
2024-05-09T13:13:38.866Z,50.89
2024-05-09T13:16:07.675Z,51.03
2024-05-09T13:18:36.298Z,51.38
2024-05-09T13:21:05.109Z,52.04
2024-05-09T13:23:33.281Z,52.01
2024-05-09T13:26:02.071Z,51.97
2024-05-09T13:28:32.341Z,51.93
2024-05-09T13:31:01.050Z,51.95
2024-05-09T13:33:29.961Z,52.11
2024-05-09T13:35:58.820Z,52.70
2024-05-09T13:38:27.386Z,52.84
2024-05-09T13:40:56.295Z,52.53
2024-05-09T13:43:25.492Z,52.54
2024-05-09T13:45:56.335Z,52.54
2024-05-09T13:48:25.056Z,51.77
2024-05-09T13:50:53.483Z,52.20
2024-05-09T13:53:21.598Z,52.70
2024-05-09T13:55:50.358Z,52.79
2024-05-09T13:58:18.718Z,53.02
2024-05-09T14:00:49.207Z,52.27
2024-05-09T14:03:20.346Z,52.67
2024-05-09T14:05:51.348Z,53.07
2024-05-09T14:08:22.107Z,52.34
2024-05-09T14:10:51.228Z,52.77
2024-05-09T14:13:20.208Z,52.87
2024-05-09T14:15:49.239Z,53.70
2024-05-09T14:18:18.881Z,52.48
2024-05-09T14:20:47.054Z,52.79
2024-05-09T14:23:17.626Z,53.00
2024-05-09T14:25:49.049Z,53.36
2024-05-09T14:28:22.350Z,52.77
2024-05-09T14:30:51.047Z,52.85
2024-05-09T14:33:26.563Z,52.94
2024-05-09T14:35:55.506Z,53.72
2024-05-09T14:38:24.750Z,54.25
2024-05-09T14:40:53.574Z,56.38
2024-05-09T14:43:22.015Z,56.83
2024-05-09T14:45:50.886Z,58.32
2024-05-09T14:48:20.199Z,56.32
2024-05-09T14:50:48.632Z,58.04
2024-05-09T14:53:16.798Z,58.81
2024-05-09T14:55:45.742Z,59.59
2024-05-09T14:58:14.984Z,59.30
2024-05-09T15:00:50.197Z,60.37
2024-05-09T15:03:21.006Z,61.43
2024-05-09T15:05:51.525Z,61.54
2024-05-09T15:08:20.548Z,61.15
2024-05-09T15:10:50.048Z,62.25
2024-05-09T15:13:20.280Z,60.56
2024-05-09T15:15:49.379Z,60.58
2024-05-09T15:18:18.142Z,60.97
2024-05-09T15:20:48.103Z,62.13
2024-05-09T15:23:16.532Z,62.34
2024-05-09T15:25:44.960Z,62.57
2024-05-09T15:28:13.902Z,62.80
2024-05-09T15:30:46.138Z,64.74
2024-05-09T15:33:15.512Z,63.75
2024-05-09T15:35:46.492Z,63.33
2024-05-09T15:38:16.211Z,63.62
2024-05-09T15:40:44.815Z,63.27
2024-05-09T15:43:13.238Z,62.90
2024-05-09T15:45:41.787Z,62.48
2024-05-09T15:48:11.532Z,60.47
2024-05-09T15:50:42.192Z,61.40
2024-05-09T15:53:13.423Z,60.03
2024-05-09T15:55:43.036Z,60.60
2024-05-09T15:58:12.505Z,60.52
2024-05-09T16:00:44.408Z,59.83
2024-05-09T16:03:15.753Z,60.08
2024-05-09T16:05:46.536Z,60.48
2024-05-09T16:08:16.358Z,60.64
2024-05-09T16:10:47.380Z,61.36
2024-05-09T16:13:16.903Z,61.80
2024-05-09T16:15:46.428Z,62.55
2024-05-09T16:18:15.740Z,62.77
2024-05-09T16:20:46.283Z,62.56
2024-05-09T16:23:17.073Z,61.31
2024-05-09T16:25:48.216Z,60.55
2024-05-09T16:28:18.746Z,59.26
2024-05-09T16:30:47.427Z,59.16
2024-05-09T16:33:19.039Z,59.03
2024-05-09T16:35:47.501Z,59.25
2024-05-09T16:38:16.345Z,60.04
2024-05-09T16:40:45.172Z,60.57
2024-05-09T16:43:13.677Z,60.83
2024-05-09T16:45:44.604Z,61.77
2024-05-09T16:48:14.251Z,62.17
2024-05-09T16:50:42.943Z,62.48
2024-05-09T16:53:11.632Z,61.92
2024-05-09T16:55:40.368Z,62.01
2024-05-09T16:58:11.970Z,62.35
2024-05-09T17:00:43.325Z,62.57
2024-05-09T17:03:15.162Z,62.74
2024-05-09T17:05:48.391Z,62.17
2024-05-09T17:08:20.710Z,62.37
2024-05-09T17:10:50.039Z,62.47
2024-05-09T17:13:19.184Z,61.94
2024-05-09T17:15:52.259Z,62.51
2024-05-09T17:18:21.126Z,62.43
2024-05-09T17:20:51.279Z,62.81
2024-05-09T17:23:19.693Z,62.76
2024-05-09T17:25:48.215Z,62.45
2024-05-09T17:28:16.828Z,62.84
2024-05-09T17:30:45.766Z,62.87
2024-05-09T17:33:14.605Z,62.73
2024-05-09T17:35:45.631Z,63.67
2024-05-09T17:38:14.313Z,63.34
2024-05-09T17:40:42.397Z,62.57
2024-05-09T17:43:11.287Z,62.69
2024-05-09T17:45:41.188Z,62.91
2024-05-09T17:48:12.077Z,63.66
2024-05-09T17:50:41.918Z,63.19
2024-05-09T17:53:11.327Z,63.29
2024-05-09T17:55:40.818Z,64.11
2024-05-09T17:58:11.050Z,64.42
2024-05-09T18:00:41.893Z,64.48
2024-05-09T18:03:12.834Z,64.79
2024-05-09T18:05:44.765Z,65.11
2024-05-09T18:08:14.165Z,66.06
2024-05-09T18:10:42.924Z,66.62
2024-05-09T18:13:12.297Z,66.94
2024-05-09T18:15:41.598Z,66.57
2024-05-09T18:18:11.277Z,66.70
2024-05-09T18:20:44.400Z,66.72
2024-05-09T18:23:17.854Z,66.73
2024-05-09T18:25:48.001Z,67.13
2024-05-09T18:28:17.344Z,67.56
2024-05-09T18:30:46.716Z,68.66
2024-05-09T18:33:15.676Z,67.49
2024-05-09T18:35:45.369Z,68.27
2024-05-09T18:38:14.323Z,68.22
2024-05-09T18:40:45.084Z,68.62
2024-05-09T18:43:15.915Z,69.83
2024-05-09T18:45:45.399Z,70.10
2024-05-09T18:48:13.774Z,70.76
2024-05-09T18:50:42.594Z,69.22
2024-05-09T18:53:13.017Z,70.29
2024-05-09T18:55:42.839Z,69.94
2024-05-09T18:58:11.808Z,69.39
2024-05-09T19:00:42.861Z,70.13
2024-05-09T19:03:14.804Z,70.69
2024-05-09T19:05:45.954Z,70.16
2024-05-09T19:08:15.712Z,71.29
2024-05-09T19:10:45.611Z,70.56
2024-05-09T19:13:14.970Z,70.40
2024-05-09T19:15:44.562Z,70.45
2024-05-09T19:18:14.460Z,70.56
2024-05-09T19:20:44.097Z,71.75
2024-05-09T19:23:13.170Z,70.99
2024-05-09T19:25:41.513Z,71.75
2024-05-09T19:28:10.237Z,72.93
2024-05-09T19:30:41.808Z,72.47
2024-05-09T19:33:13.126Z,72.38
2024-05-09T19:35:43.943Z,72.79
2024-05-09T19:38:13.069Z,73.28
2024-05-09T19:40:41.875Z,73.32
2024-05-09T19:43:10.899Z,73.07
2024-05-09T19:45:39.531Z,72.79
2024-05-09T19:48:08.958Z,72.29
2024-05-09T19:50:42.982Z,72.62
2024-05-09T19:53:14.835Z,73.00
2024-05-09T19:55:44.045Z,72.25
2024-05-09T19:58:13.287Z,72.03
2024-05-09T20:00:43.624Z,72.44
2024-05-09T20:03:15.094Z,72.93
2024-05-09T20:05:46.830Z,72.90
2024-05-09T20:08:17.065Z,72.20
2024-05-09T20:10:46.165Z,73.29
2024-05-09T20:13:14.804Z,72.94
2024-05-09T20:15:43.402Z,72.98
2024-05-09T20:18:12.902Z,72.96
2024-05-09T20:20:43.752Z,72.63
2024-05-09T20:23:14.526Z,72.91
2024-05-09T20:25:43.790Z,73.60
2024-05-09T20:28:12.402Z,73.45
2024-05-09T20:30:41.124Z,73.53
2024-05-09T20:33:10.141Z,72.79
2024-05-09T20:35:39.603Z,72.54
2024-05-09T20:38:08.095Z,73.12
2024-05-09T20:40:38.925Z,73.27
2024-05-09T20:43:09.935Z,73.30
2024-05-09T20:45:40.069Z,72.99
2024-05-09T20:48:09.723Z,72.63
2024-05-09T20:50:41.389Z,72.62
2024-05-09T20:53:13.943Z,73.31
2024-05-09T20:55:44.763Z,73.51
2024-05-09T20:58:14.104Z,73.53
2024-05-09T21:00:45.692Z,73.87
2024-05-09T21:03:17.030Z,73.99
2024-05-09T21:05:47.685Z,73.47
2024-05-09T21:08:16.668Z,73.28
2024-05-09T21:10:45.144Z,74.06
2024-05-09T21:13:14.418Z,74.54
2024-05-09T21:15:42.987Z,74.29
2024-05-09T21:18:11.578Z,74.44
2024-05-09T21:20:39.861Z,74.21
2024-05-09T21:23:08.319Z,74.49
2024-05-09T21:25:36.779Z,74.21
2024-05-09T21:28:05.438Z,74.68
2024-05-09T21:30:41.250Z,74.38
2024-05-09T21:33:13.727Z,74.49
2024-05-09T21:35:44.509Z,74.04
2024-05-09T21:38:14.622Z,74.18
2024-05-09T21:40:44.625Z,74.36
2024-05-09T21:43:14.295Z,74.87
2024-05-09T21:45:42.983Z,74.27
2024-05-09T21:48:12.981Z,74.10
2024-05-09T21:50:42.546Z,73.98
2024-05-09T21:53:12.854Z,74.25
2024-05-09T21:55:42.910Z,74.10
2024-05-09T21:58:13.159Z,74.48
2024-05-09T22:00:46.366Z,73.99
2024-05-09T22:03:15.389Z,74.45
2024-05-09T22:05:44.978Z,73.97
2024-05-09T22:08:13.831Z,74.33
2024-05-09T22:10:42.586Z,73.87
2024-05-09T22:13:11.389Z,74.11
2024-05-09T22:15:40.606Z,73.64
2024-05-09T22:18:11.058Z,73.38
2024-05-09T22:20:44.787Z,73.51
2024-05-09T22:23:15.458Z,73.72
2024-05-09T22:25:44.000Z,73.44
2024-05-09T22:28:15.394Z,74.55
2024-05-09T22:30:45.737Z,74.45
2024-05-09T22:33:14.931Z,74.18
2024-05-09T22:35:43.361Z,73.93
2024-05-09T22:38:11.938Z,74.79
2024-05-09T22:40:47.355Z,74.08
2024-05-09T22:43:23.649Z,74.10
2024-05-09T22:45:57.002Z,74.57
2024-05-09T22:48:26.421Z,75.44
2024-05-09T22:50:55.347Z,74.84
2024-05-09T22:53:25.276Z,74.80
2024-05-09T22:55:54.108Z,74.75
2024-05-09T22:58:23.411Z,74.34
2024-05-09T23:00:52.279Z,74.89
2024-05-09T23:03:21.257Z,75.50
2024-05-09T23:05:50.822Z,75.82
2024-05-09T23:08:19.428Z,75.57
2024-05-09T23:10:47.767Z,75.68
2024-05-09T23:13:16.283Z,75.97
2024-05-09T23:15:44.711Z,76.29
2024-05-09T23:18:12.779Z,76.35
2024-05-09T23:20:41.560Z,76.28
2024-05-09T23:23:11.577Z,75.79
2024-05-09T23:25:43.718Z,75.88
2024-05-09T23:28:12.747Z,75.49
2024-05-09T23:30:42.262Z,76.06
2024-05-09T23:33:13.082Z,75.73
2024-05-09T23:35:44.182Z,75.94
2024-05-09T23:38:13.629Z,76.08
2024-05-09T23:40:43.225Z,76.04
2024-05-09T23:43:14.229Z,75.93
2024-05-09T23:45:43.721Z,76.02
2024-05-09T23:48:12.628Z,75.73
2024-05-09T23:50:41.887Z,75.77
2024-05-09T23:53:11.032Z,75.69
2024-05-09T23:55:40.550Z,75.45
2024-05-09T23:58:11.392Z,75.84
